sensor_id;sensor_type;location;lat;lon;timestamp;P1;durP1;ratioP1;P2;durP2;ratioP2
57752;SDS011;43583;53.132;6.574;2023-05-07T00:01:41;17.60;;;12.50;;
57752;SDS011;43583;53.132;6.574;2023-05-07T00:04:06;19.58;;;12.85;;
57752;SDS011;43583;53.132;6.574;2023-05-07T00:06:32;17.80;;;12.18;;
57752;SDS011;43583;53.132;6.574;2023-05-07T00:08:58;19.55;;;11.93;;
57752;SDS011;43583;53.132;6.574;2023-05-07T00:11:24;22.35;;;13.55;;
57752;SDS011;43583;53.132;6.574;2023-05-07T00:13:51;23.17;;;14.30;;
57752;SDS011;43583;53.132;6.574;2023-05-07T00:16:16;20.75;;;13.35;;
57752;SDS011;43583;53.132;6.574;2023-05-07T00:18:42;21.38;;;13.50;;
57752;SDS011;43583;53.132;6.574;2023-05-07T00:21:08;22.25;;;13.55;;
57752;SDS011;43583;53.132;6.574;2023-05-07T00:23:34;19.27;;;13.82;;
57752;SDS011;43583;53.132;6.574;2023-05-07T00:25:59;22.98;;;13.70;;
57752;SDS011;43583;53.132;6.574;2023-05-07T00:28:25;22.33;;;14.45;;
57752;SDS011;43583;53.132;6.574;2023-05-07T00:30:50;23.90;;;15.00;;
57752;SDS011;43583;53.132;6.574;2023-05-07T00:33:16;19.27;;;13.77;;
57752;SDS011;43583;53.132;6.574;2023-05-07T00:35:42;23.08;;;14.32;;
57752;SDS011;43583;53.132;6.574;2023-05-07T00:38:07;22.60;;;14.98;;
57752;SDS011;43583;53.132;6.574;2023-05-07T00:40:33;25.45;;;14.65;;
57752;SDS011;43583;53.132;6.574;2023-05-07T00:42:59;20.80;;;13.85;;
57752;SDS011;43583;53.132;6.574;2023-05-07T00:45:28;21.48;;;13.27;;
57752;SDS011;43583;53.132;6.574;2023-05-07T00:47:55;24.20;;;14.43;;
57752;SDS011;43583;53.132;6.574;2023-05-07T00:50:22;22.45;;;15.07;;
57752;SDS011;43583;53.132;6.574;2023-05-07T00:52:48;24.02;;;14.75;;
57752;SDS011;43583;53.132;6.574;2023-05-07T00:55:14;24.48;;;14.63;;
57752;SDS011;43583;53.132;6.574;2023-05-07T00:57:40;25.00;;;14.32;;
57752;SDS011;43583;53.132;6.574;2023-05-07T01:00:07;27.35;;;15.05;;
57752;SDS011;43583;53.132;6.574;2023-05-07T01:02:37;25.75;;;14.15;;
57752;SDS011;43583;53.132;6.574;2023-05-07T01:05:04;26.35;;;14.55;;
57752;SDS011;43583;53.132;6.574;2023-05-07T01:07:32;24.48;;;15.32;;
57752;SDS011;43583;53.132;6.574;2023-05-07T01:09:59;23.08;;;14.10;;
57752;SDS011;43583;53.132;6.574;2023-05-07T01:12:26;26.48;;;14.90;;
57752;SDS011;43583;53.132;6.574;2023-05-07T01:14:53;22.88;;;14.40;;
57752;SDS011;43583;53.132;6.574;2023-05-07T01:17:19;26.05;;;16.00;;
57752;SDS011;43583;53.132;6.574;2023-05-07T01:19:44;23.75;;;14.32;;
57752;SDS011;43583;53.132;6.574;2023-05-07T01:22:11;25.00;;;14.93;;
57752;SDS011;43583;53.132;6.574;2023-05-07T01:24:37;27.27;;;15.10;;
57752;SDS011;43583;53.132;6.574;2023-05-07T01:27:03;25.02;;;15.65;;
57752;SDS011;43583;53.132;6.574;2023-05-07T01:29:29;26.05;;;15.88;;
57752;SDS011;43583;53.132;6.574;2023-05-07T01:31:56;24.50;;;16.45;;
57752;SDS011;43583;53.132;6.574;2023-05-07T01:34:24;28.70;;;16.17;;
57752;SDS011;43583;53.132;6.574;2023-05-07T01:36:51;25.55;;;17.42;;
57752;SDS011;43583;53.132;6.574;2023-05-07T01:39:20;29.75;;;16.10;;
57752;SDS011;43583;53.132;6.574;2023-05-07T01:41:48;27.95;;;17.00;;
57752;SDS011;43583;53.132;6.574;2023-05-07T01:44:14;27.67;;;15.95;;
57752;SDS011;43583;53.132;6.574;2023-05-07T01:46:41;29.40;;;16.83;;
57752;SDS011;43583;53.132;6.574;2023-05-07T01:49:07;29.77;;;17.90;;
57752;SDS011;43583;53.132;6.574;2023-05-07T01:51:33;26.15;;;16.73;;
57752;SDS011;43583;53.132;6.574;2023-05-07T01:53:59;34.00;;;17.60;;
57752;SDS011;43583;53.132;6.574;2023-05-07T01:56:25;30.67;;;17.10;;
57752;SDS011;43583;53.132;6.574;2023-05-07T01:58:51;30.92;;;19.42;;
57752;SDS011;43583;53.132;6.574;2023-05-07T02:01:17;31.38;;;17.48;;
57752;SDS011;43583;53.132;6.574;2023-05-07T02:03:43;34.65;;;18.95;;
57752;SDS011;43583;53.132;6.574;2023-05-07T02:06:09;34.35;;;18.23;;
57752;SDS011;43583;53.132;6.574;2023-05-07T02:08:35;30.13;;;19.00;;
57752;SDS011;43583;53.132;6.574;2023-05-07T02:11:00;33.03;;;17.52;;
57752;SDS011;43583;53.132;6.574;2023-05-07T02:13:28;34.15;;;18.27;;
57752;SDS011;43583;53.132;6.574;2023-05-07T02:15:55;33.35;;;18.17;;
57752;SDS011;43583;53.132;6.574;2023-05-07T02:18:20;33.17;;;18.60;;
57752;SDS011;43583;53.132;6.574;2023-05-07T02:20:46;33.70;;;18.30;;
57752;SDS011;43583;53.132;6.574;2023-05-07T02:23:12;34.05;;;19.88;;
57752;SDS011;43583;53.132;6.574;2023-05-07T02:25:37;34.60;;;18.23;;
57752;SDS011;43583;53.132;6.574;2023-05-07T02:28:03;33.60;;;19.65;;
57752;SDS011;43583;53.132;6.574;2023-05-07T02:30:29;32.60;;;17.65;;
57752;SDS011;43583;53.132;6.574;2023-05-07T02:32:54;37.90;;;20.25;;
57752;SDS011;43583;53.132;6.574;2023-05-07T02:35:20;36.13;;;19.13;;
57752;SDS011;43583;53.132;6.574;2023-05-07T02:37:46;35.45;;;19.33;;
57752;SDS011;43583;53.132;6.574;2023-05-07T02:40:11;38.03;;;18.80;;
57752;SDS011;43583;53.132;6.574;2023-05-07T02:42:37;37.13;;;19.73;;
57752;SDS011;43583;53.132;6.574;2023-05-07T02:45:03;40.58;;;19.77;;
57752;SDS011;43583;53.132;6.574;2023-05-07T02:47:29;33.13;;;18.90;;
57752;SDS011;43583;53.132;6.574;2023-05-07T02:49:54;40.80;;;20.27;;
57752;SDS011;43583;53.132;6.574;2023-05-07T02:52:21;38.92;;;19.02;;
57752;SDS011;43583;53.132;6.574;2023-05-07T02:54:47;33.92;;;18.95;;
57752;SDS011;43583;53.132;6.574;2023-05-07T02:57:12;42.85;;;21.45;;
57752;SDS011;43583;53.132;6.574;2023-05-07T02:59:38;39.70;;;20.17;;
57752;SDS011;43583;53.132;6.574;2023-05-07T03:02:04;41.75;;;21.17;;
57752;SDS011;43583;53.132;6.574;2023-05-07T03:04:30;38.22;;;20.05;;
57752;SDS011;43583;53.132;6.574;2023-05-07T03:06:56;46.33;;;22.33;;
57752;SDS011;43583;53.132;6.574;2023-05-07T03:09:21;44.13;;;22.88;;
57752;SDS011;43583;53.132;6.574;2023-05-07T03:11:47;41.88;;;21.70;;
57752;SDS011;43583;53.132;6.574;2023-05-07T03:14:12;41.30;;;21.08;;
57752;SDS011;43583;53.132;6.574;2023-05-07T03:16:38;43.03;;;21.75;;
57752;SDS011;43583;53.132;6.574;2023-05-07T03:19:04;37.17;;;21.15;;
57752;SDS011;43583;53.132;6.574;2023-05-07T03:21:30;36.90;;;19.65;;
57752;SDS011;43583;53.132;6.574;2023-05-07T03:23:58;47.25;;;20.75;;
57752;SDS011;43583;53.132;6.574;2023-05-07T03:26:24;37.20;;;20.67;;
57752;SDS011;43583;53.132;6.574;2023-05-07T03:28:50;39.33;;;20.35;;
57752;SDS011;43583;53.132;6.574;2023-05-07T03:31:16;42.53;;;21.48;;
57752;SDS011;43583;53.132;6.574;2023-05-07T03:33:52;43.03;;;22.17;;
57752;SDS011;43583;53.132;6.574;2023-05-07T03:36:18;42.08;;;21.70;;
57752;SDS011;43583;53.132;6.574;2023-05-07T03:38:44;41.72;;;22.38;;
57752;SDS011;43583;53.132;6.574;2023-05-07T03:41:10;39.72;;;21.38;;
57752;SDS011;43583;53.132;6.574;2023-05-07T03:43:36;40.20;;;20.98;;
57752;SDS011;43583;53.132;6.574;2023-05-07T03:46:01;39.08;;;20.80;;
57752;SDS011;43583;53.132;6.574;2023-05-07T03:48:27;42.75;;;21.77;;
57752;SDS011;43583;53.132;6.574;2023-05-07T03:50:53;39.35;;;21.02;;
57752;SDS011;43583;53.132;6.574;2023-05-07T03:53:18;48.08;;;22.90;;
57752;SDS011;43583;53.132;6.574;2023-05-07T03:55:44;40.45;;;21.20;;
57752;SDS011;43583;53.132;6.574;2023-05-07T03:58:09;38.22;;;21.58;;
57752;SDS011;43583;53.132;6.574;2023-05-07T04:00:35;46.50;;;22.48;;
57752;SDS011;43583;53.132;6.574;2023-05-07T04:03:03;49.40;;;22.80;;
57752;SDS011;43583;53.132;6.574;2023-05-07T04:05:30;41.97;;;21.60;;
57752;SDS011;43583;53.132;6.574;2023-05-07T04:07:57;40.88;;;21.02;;
57752;SDS011;43583;53.132;6.574;2023-05-07T04:10:24;38.40;;;21.05;;
57752;SDS011;43583;53.132;6.574;2023-05-07T04:12:49;39.58;;;19.75;;
57752;SDS011;43583;53.132;6.574;2023-05-07T04:15:15;34.78;;;20.27;;
57752;SDS011;43583;53.132;6.574;2023-05-07T04:17:41;39.65;;;19.80;;
57752;SDS011;43583;53.132;6.574;2023-05-07T04:20:08;44.10;;;22.20;;
57752;SDS011;43583;53.132;6.574;2023-05-07T04:22:35;39.72;;;20.33;;
57752;SDS011;43583;53.132;6.574;2023-05-07T04:25:02;40.42;;;21.10;;
57752;SDS011;43583;53.132;6.574;2023-05-07T04:27:28;38.25;;;20.45;;
57752;SDS011;43583;53.132;6.574;2023-05-07T04:29:54;37.38;;;20.10;;
57752;SDS011;43583;53.132;6.574;2023-05-07T04:32:21;32.95;;;19.15;;
57752;SDS011;43583;53.132;6.574;2023-05-07T04:34:47;34.95;;;19.05;;
57752;SDS011;43583;53.132;6.574;2023-05-07T04:37:13;37.20;;;20.92;;
57752;SDS011;43583;53.132;6.574;2023-05-07T04:39:39;33.92;;;19.25;;
57752;SDS011;43583;53.132;6.574;2023-05-07T04:42:05;34.08;;;18.90;;
57752;SDS011;43583;53.132;6.574;2023-05-07T04:44:33;36.35;;;19.40;;
57752;SDS011;43583;53.132;6.574;2023-05-07T04:47:00;29.85;;;19.00;;
57752;SDS011;43583;53.132;6.574;2023-05-07T04:49:26;39.88;;;21.15;;
57752;SDS011;43583;53.132;6.574;2023-05-07T04:51:52;34.45;;;19.08;;
57752;SDS011;43583;53.132;6.574;2023-05-07T04:54:18;31.50;;;19.80;;
57752;SDS011;43583;53.132;6.574;2023-05-07T04:56:44;33.15;;;18.63;;
57752;SDS011;43583;53.132;6.574;2023-05-07T04:59:09;34.42;;;20.08;;
57752;SDS011;43583;53.132;6.574;2023-05-07T05:01:35;36.05;;;17.85;;
57752;SDS011;43583;53.132;6.574;2023-05-07T05:04:01;35.67;;;18.70;;
57752;SDS011;43583;53.132;6.574;2023-05-07T05:06:26;35.22;;;20.00;;
57752;SDS011;43583;53.132;6.574;2023-05-07T05:08:52;34.03;;;18.60;;
57752;SDS011;43583;53.132;6.574;2023-05-07T05:11:18;30.92;;;18.00;;
57752;SDS011;43583;53.132;6.574;2023-05-07T05:13:43;32.67;;;18.73;;
57752;SDS011;43583;53.132;6.574;2023-05-07T05:16:09;29.40;;;16.17;;
57752;SDS011;43583;53.132;6.574;2023-05-07T05:18:35;34.20;;;17.52;;
57752;SDS011;43583;53.132;6.574;2023-05-07T05:21:00;33.20;;;18.20;;
57752;SDS011;43583;53.132;6.574;2023-05-07T05:23:26;31.90;;;17.40;;
57752;SDS011;43583;53.132;6.574;2023-05-07T05:25:55;32.25;;;17.27;;
57752;SDS011;43583;53.132;6.574;2023-05-07T05:28:22;33.08;;;17.65;;
57752;SDS011;43583;53.132;6.574;2023-05-07T05:30:48;34.47;;;17.80;;
57752;SDS011;43583;53.132;6.574;2023-05-07T05:33:15;27.98;;;16.50;;
57752;SDS011;43583;53.132;6.574;2023-05-07T05:35:41;29.45;;;17.05;;
57752;SDS011;43583;53.132;6.574;2023-05-07T05:38:07;29.48;;;16.92;;
57752;SDS011;43583;53.132;6.574;2023-05-07T05:40:33;27.77;;;16.17;;
57752;SDS011;43583;53.132;6.574;2023-05-07T05:42:59;28.98;;;16.88;;
57752;SDS011;43583;53.132;6.574;2023-05-07T05:45:24;27.20;;;16.83;;
57752;SDS011;43583;53.132;6.574;2023-05-07T05:47:50;26.50;;;15.82;;
57752;SDS011;43583;53.132;6.574;2023-05-07T05:50:16;25.98;;;15.98;;
57752;SDS011;43583;53.132;6.574;2023-05-07T05:52:41;26.83;;;15.82;;
57752;SDS011;43583;53.132;6.574;2023-05-07T05:55:07;26.55;;;15.45;;
57752;SDS011;43583;53.132;6.574;2023-05-07T05:57:33;27.60;;;16.65;;
57752;SDS011;43583;53.132;6.574;2023-05-07T05:59:59;26.02;;;17.05;;
57752;SDS011;43583;53.132;6.574;2023-05-07T06:02:26;27.85;;;17.45;;
57752;SDS011;43583;53.132;6.574;2023-05-07T06:04:51;24.38;;;15.38;;
57752;SDS011;43583;53.132;6.574;2023-05-07T06:07:17;27.30;;;15.90;;
57752;SDS011;43583;53.132;6.574;2023-05-07T06:09:43;23.00;;;15.45;;
57752;SDS011;43583;53.132;6.574;2023-05-07T06:12:09;26.85;;;16.40;;
57752;SDS011;43583;53.132;6.574;2023-05-07T06:14:34;25.35;;;15.55;;
57752;SDS011;43583;53.132;6.574;2023-05-07T06:17:00;25.83;;;15.82;;
57752;SDS011;43583;53.132;6.574;2023-05-07T06:19:26;28.15;;;16.45;;
57752;SDS011;43583;53.132;6.574;2023-05-07T06:21:53;27.13;;;16.05;;
57752;SDS011;43583;53.132;6.574;2023-05-07T06:24:18;26.73;;;16.25;;
57752;SDS011;43583;53.132;6.574;2023-05-07T06:26:44;23.48;;;14.82;;
57752;SDS011;43583;53.132;6.574;2023-05-07T06:29:10;23.98;;;15.93;;
57752;SDS011;43583;53.132;6.574;2023-05-07T06:31:35;25.45;;;16.45;;
57752;SDS011;43583;53.132;6.574;2023-05-07T06:34:01;20.90;;;14.25;;
57752;SDS011;43583;53.132;6.574;2023-05-07T06:36:27;26.15;;;15.50;;
57752;SDS011;43583;53.132;6.574;2023-05-07T06:38:53;23.25;;;15.73;;
57752;SDS011;43583;53.132;6.574;2023-05-07T06:41:18;23.98;;;14.52;;
57752;SDS011;43583;53.132;6.574;2023-05-07T06:43:45;24.48;;;14.98;;
57752;SDS011;43583;53.132;6.574;2023-05-07T06:46:11;22.75;;;14.38;;
57752;SDS011;43583;53.132;6.574;2023-05-07T06:48:36;23.17;;;15.45;;
57752;SDS011;43583;53.132;6.574;2023-05-07T06:51:02;23.10;;;14.65;;
57752;SDS011;43583;53.132;6.574;2023-05-07T06:53:28;24.05;;;15.07;;
57752;SDS011;43583;53.132;6.574;2023-05-07T06:55:55;26.05;;;16.05;;
57752;SDS011;43583;53.132;6.574;2023-05-07T06:58:21;23.67;;;14.75;;
57752;SDS011;43583;53.132;6.574;2023-05-07T07:00:47;23.10;;;13.77;;
57752;SDS011;43583;53.132;6.574;2023-05-07T07:03:12;24.20;;;14.00;;
57752;SDS011;43583;53.132;6.574;2023-05-07T07:05:39;21.65;;;13.15;;
57752;SDS011;43583;53.132;6.574;2023-05-07T07:08:05;22.02;;;13.63;;
57752;SDS011;43583;53.132;6.574;2023-05-07T07:10:31;23.90;;;14.63;;
57752;SDS011;43583;53.132;6.574;2023-05-07T07:12:57;20.40;;;13.65;;
57752;SDS011;43583;53.132;6.574;2023-05-07T07:15:22;22.35;;;13.80;;
57752;SDS011;43583;53.132;6.574;2023-05-07T07:17:50;24.52;;;15.65;;
57752;SDS011;43583;53.132;6.574;2023-05-07T07:20:16;22.88;;;14.10;;
57752;SDS011;43583;53.132;6.574;2023-05-07T07:22:41;27.40;;;14.65;;
57752;SDS011;43583;53.132;6.574;2023-05-07T07:25:07;22.77;;;14.80;;
57752;SDS011;43583;53.132;6.574;2023-05-07T07:27:33;22.13;;;14.45;;
57752;SDS011;43583;53.132;6.574;2023-05-07T07:29:59;23.38;;;13.57;;
57752;SDS011;43583;53.132;6.574;2023-05-07T07:32:25;22.92;;;13.43;;
57752;SDS011;43583;53.132;6.574;2023-05-07T07:34:51;25.02;;;15.30;;
57752;SDS011;43583;53.132;6.574;2023-05-07T07:37:16;22.27;;;14.35;;
57752;SDS011;43583;53.132;6.574;2023-05-07T07:39:42;21.98;;;14.52;;
57752;SDS011;43583;53.132;6.574;2023-05-07T07:42:07;24.63;;;14.48;;
57752;SDS011;43583;53.132;6.574;2023-05-07T07:44:33;21.73;;;13.77;;
57752;SDS011;43583;53.132;6.574;2023-05-07T07:46:59;26.15;;;15.07;;
57752;SDS011;43583;53.132;6.574;2023-05-07T07:49:24;19.67;;;13.55;;
57752;SDS011;43583;53.132;6.574;2023-05-07T07:51:50;22.23;;;13.93;;
57752;SDS011;43583;53.132;6.574;2023-05-07T07:54:16;26.35;;;15.40;;
57752;SDS011;43583;53.132;6.574;2023-05-07T07:56:41;22.10;;;14.23;;
57752;SDS011;43583;53.132;6.574;2023-05-07T07:59:07;23.02;;;13.88;;
57752;SDS011;43583;53.132;6.574;2023-05-07T08:01:33;21.70;;;13.68;;
57752;SDS011;43583;53.132;6.574;2023-05-07T08:03:58;23.00;;;13.77;;
57752;SDS011;43583;53.132;6.574;2023-05-07T08:06:24;21.65;;;13.07;;
57752;SDS011;43583;53.132;6.574;2023-05-07T08:08:52;19.23;;;12.77;;
57752;SDS011;43583;53.132;6.574;2023-05-07T08:11:18;22.25;;;15.13;;
57752;SDS011;43583;53.132;6.574;2023-05-07T08:13:45;23.10;;;14.38;;
57752;SDS011;43583;53.132;6.574;2023-05-07T08:16:11;26.17;;;15.27;;
57752;SDS011;43583;53.132;6.574;2023-05-07T08:18:37;22.13;;;15.10;;
57752;SDS011;43583;53.132;6.574;2023-05-07T08:21:02;21.50;;;12.90;;
57752;SDS011;43583;53.132;6.574;2023-05-07T08:23:28;22.17;;;14.43;;
57752;SDS011;43583;53.132;6.574;2023-05-07T08:25:54;21.65;;;13.48;;
57752;SDS011;43583;53.132;6.574;2023-05-07T08:28:19;23.10;;;14.25;;
57752;SDS011;43583;53.132;6.574;2023-05-07T08:30:46;22.75;;;13.85;;
57752;SDS011;43583;53.132;6.574;2023-05-07T08:33:12;21.30;;;13.45;;
57752;SDS011;43583;53.132;6.574;2023-05-07T08:35:38;22.40;;;13.80;;
57752;SDS011;43583;53.132;6.574;2023-05-07T08:38:03;20.30;;;12.95;;
57752;SDS011;43583;53.132;6.574;2023-05-07T08:40:29;21.83;;;14.80;;
57752;SDS011;43583;53.132;6.574;2023-05-07T08:43:01;19.38;;;13.38;;
57752;SDS011;43583;53.132;6.574;2023-05-07T08:45:28;21.10;;;14.13;;
57752;SDS011;43583;53.132;6.574;2023-05-07T08:47:58;22.35;;;14.23;;
57752;SDS011;43583;53.132;6.574;2023-05-07T08:50:25;21.98;;;14.00;;
57752;SDS011;43583;53.132;6.574;2023-05-07T08:52:50;22.30;;;14.65;;
57752;SDS011;43583;53.132;6.574;2023-05-07T08:55:16;17.58;;;11.82;;
57752;SDS011;43583;53.132;6.574;2023-05-07T08:57:42;21.13;;;13.23;;
57752;SDS011;43583;53.132;6.574;2023-05-07T09:00:08;17.75;;;12.98;;
57752;SDS011;43583;53.132;6.574;2023-05-07T09:02:35;19.20;;;13.07;;
57752;SDS011;43583;53.132;6.574;2023-05-07T09:05:01;19.70;;;12.82;;
57752;SDS011;43583;53.132;6.574;2023-05-07T09:07:27;21.13;;;13.82;;
57752;SDS011;43583;53.132;6.574;2023-05-07T09:09:53;19.63;;;14.00;;
57752;SDS011;43583;53.132;6.574;2023-05-07T09:12:22;18.38;;;12.05;;
57752;SDS011;43583;53.132;6.574;2023-05-07T09:14:48;18.65;;;13.13;;
57752;SDS011;43583;53.132;6.574;2023-05-07T09:17:17;20.60;;;13.63;;
57752;SDS011;43583;53.132;6.574;2023-05-07T09:19:46;21.20;;;13.43;;
57752;SDS011;43583;53.132;6.574;2023-05-07T09:22:12;21.05;;;13.38;;
57752;SDS011;43583;53.132;6.574;2023-05-07T09:24:38;18.95;;;12.82;;
57752;SDS011;43583;53.132;6.574;2023-05-07T09:27:04;18.33;;;12.75;;
57752;SDS011;43583;53.132;6.574;2023-05-07T09:29:30;18.85;;;12.35;;
57752;SDS011;43583;53.132;6.574;2023-05-07T09:32:07;19.92;;;13.35;;
57752;SDS011;43583;53.132;6.574;2023-05-07T09:34:33;19.38;;;13.05;;
57752;SDS011;43583;53.132;6.574;2023-05-07T09:37:03;19.10;;;12.73;;
57752;SDS011;43583;53.132;6.574;2023-05-07T09:39:39;18.90;;;13.02;;
57752;SDS011;43583;53.132;6.574;2023-05-07T09:42:12;19.65;;;13.25;;
57752;SDS011;43583;53.132;6.574;2023-05-07T09:44:43;18.42;;;12.00;;
57752;SDS011;43583;53.132;6.574;2023-05-07T09:47:10;17.17;;;12.98;;
57752;SDS011;43583;53.132;6.574;2023-05-07T09:49:39;19.85;;;12.30;;
57752;SDS011;43583;53.132;6.574;2023-05-07T09:52:07;17.70;;;12.45;;
57752;SDS011;43583;53.132;6.574;2023-05-07T09:54:35;17.02;;;12.45;;
57752;SDS011;43583;53.132;6.574;2023-05-07T09:57:03;21.05;;;12.85;;
57752;SDS011;43583;53.132;6.574;2023-05-07T09:59:31;15.93;;;11.10;;
57752;SDS011;43583;53.132;6.574;2023-05-07T10:01:58;15.02;;;10.95;;
57752;SDS011;43583;53.132;6.574;2023-05-07T10:07:28;14.88;;;11.45;;
57752;SDS011;43583;53.132;6.574;2023-05-07T10:09:55;15.85;;;11.93;;
57752;SDS011;43583;53.132;6.574;2023-05-07T10:15:48;19.15;;;12.05;;
57752;SDS011;43583;53.132;6.574;2023-05-07T10:18:38;15.93;;;11.50;;
57752;SDS011;43583;53.132;6.574;2023-05-07T10:24:16;15.88;;;11.38;;
57752;SDS011;43583;53.132;6.574;2023-05-07T10:27:26;14.77;;;10.95;;
57752;SDS011;43583;53.132;6.574;2023-05-07T10:39:30;17.33;;;12.57;;
57752;SDS011;43583;53.132;6.574;2023-05-07T10:48:34;15.70;;;10.93;;
57752;SDS011;43583;53.132;6.574;2023-05-07T10:51:20;14.43;;;10.73;;
57752;SDS011;43583;53.132;6.574;2023-05-07T10:54:37;13.52;;;10.20;;
57752;SDS011;43583;53.132;6.574;2023-05-07T10:56:38;12.95;;;9.73;;
57752;SDS011;43583;53.132;6.574;2023-05-07T11:01:54;14.15;;;11.02;;
57752;SDS011;43583;53.132;6.574;2023-05-07T11:04:20;15.05;;;10.57;;
57752;SDS011;43583;53.132;6.574;2023-05-07T11:12:16;13.50;;;9.97;;
57752;SDS011;43583;53.132;6.574;2023-05-07T11:15:01;15.48;;;12.02;;
57752;SDS011;43583;53.132;6.574;2023-05-07T11:17:28;14.77;;;11.30;;
57752;SDS011;43583;53.132;6.574;2023-05-07T11:19:57;14.43;;;10.75;;
57752;SDS011;43583;53.132;6.574;2023-05-07T11:22:35;14.57;;;10.68;;
57752;SDS011;43583;53.132;6.574;2023-05-07T11:25:06;12.95;;;9.85;;
57752;SDS011;43583;53.132;6.574;2023-05-07T11:27:34;12.98;;;10.00;;
57752;SDS011;43583;53.132;6.574;2023-05-07T11:30:00;10.98;;;9.13;;
57752;SDS011;43583;53.132;6.574;2023-05-07T11:32:27;14.50;;;10.82;;
57752;SDS011;43583;53.132;6.574;2023-05-07T11:34:54;11.88;;;9.93;;
57752;SDS011;43583;53.132;6.574;2023-05-07T11:37:21;13.07;;;10.55;;
57752;SDS011;43583;53.132;6.574;2023-05-07T11:39:48;13.85;;;10.40;;
57752;SDS011;43583;53.132;6.574;2023-05-07T11:42:29;13.07;;;11.35;;
57752;SDS011;43583;53.132;6.574;2023-05-07T11:44:56;13.95;;;10.77;;
57752;SDS011;43583;53.132;6.574;2023-05-07T11:47:22;11.32;;;9.73;;
57752;SDS011;43583;53.132;6.574;2023-05-07T11:49:49;11.23;;;9.63;;
57752;SDS011;43583;53.132;6.574;2023-05-07T11:52:17;14.02;;;9.90;;
57752;SDS011;43583;53.132;6.574;2023-05-07T11:54:51;12.43;;;10.05;;
57752;SDS011;43583;53.132;6.574;2023-05-07T11:57:21;12.50;;;10.25;;
57752;SDS011;43583;53.132;6.574;2023-05-07T11:59:47;14.15;;;10.02;;
57752;SDS011;43583;53.132;6.574;2023-05-07T12:02:17;12.35;;;10.30;;
57752;SDS011;43583;53.132;6.574;2023-05-07T12:04:46;12.30;;;10.43;;
57752;SDS011;43583;53.132;6.574;2023-05-07T12:07:19;12.48;;;10.35;;
57752;SDS011;43583;53.132;6.574;2023-05-07T12:09:59;11.63;;;9.90;;
57752;SDS011;43583;53.132;6.574;2023-05-07T12:12:29;11.82;;;10.23;;
57752;SDS011;43583;53.132;6.574;2023-05-07T12:14:54;10.57;;;8.88;;
57752;SDS011;43583;53.132;6.574;2023-05-07T12:17:20;11.57;;;10.27;;
57752;SDS011;43583;53.132;6.574;2023-05-07T12:19:46;14.02;;;11.35;;
57752;SDS011;43583;53.132;6.574;2023-05-07T12:22:12;11.68;;;9.65;;
57752;SDS011;43583;53.132;6.574;2023-05-07T12:24:45;10.75;;;8.98;;
57752;SDS011;43583;53.132;6.574;2023-05-07T12:27:14;10.63;;;8.95;;
57752;SDS011;43583;53.132;6.574;2023-05-07T12:29:47;11.95;;;10.70;;
57752;SDS011;43583;53.132;6.574;2023-05-07T12:32:15;10.60;;;9.13;;
57752;SDS011;43583;53.132;6.574;2023-05-07T12:34:41;10.95;;;9.85;;
57752;SDS011;43583;53.132;6.574;2023-05-07T12:37:07;10.85;;;9.75;;
57752;SDS011;43583;53.132;6.574;2023-05-07T12:39:33;10.60;;;9.50;;
57752;SDS011;43583;53.132;6.574;2023-05-07T12:41:59;11.52;;;9.35;;
57752;SDS011;43583;53.132;6.574;2023-05-07T12:44:25;10.52;;;9.15;;
57752;SDS011;43583;53.132;6.574;2023-05-07T12:46:55;10.77;;;9.68;;
57752;SDS011;43583;53.132;6.574;2023-05-07T12:49:20;12.18;;;9.45;;
57752;SDS011;43583;53.132;6.574;2023-05-07T12:51:47;11.40;;;9.65;;
57752;SDS011;43583;53.132;6.574;2023-05-07T12:54:13;10.43;;;9.43;;
57752;SDS011;43583;53.132;6.574;2023-05-07T12:56:59;10.70;;;9.52;;
57752;SDS011;43583;53.132;6.574;2023-05-07T12:59:33;11.45;;;9.73;;
57752;SDS011;43583;53.132;6.574;2023-05-07T13:05:37;11.10;;;9.63;;
57752;SDS011;43583;53.132;6.574;2023-05-07T13:08:02;11.75;;;9.93;;
57752;SDS011;43583;53.132;6.574;2023-05-07T13:10:28;12.18;;;10.90;;
57752;SDS011;43583;53.132;6.574;2023-05-07T13:12:54;10.50;;;9.48;;
57752;SDS011;43583;53.132;6.574;2023-05-07T13:15:19;10.93;;;9.88;;
57752;SDS011;43583;53.132;6.574;2023-05-07T13:17:46;10.82;;;9.80;;
57752;SDS011;43583;53.132;6.574;2023-05-07T13:20:12;10.30;;;9.30;;
57752;SDS011;43583;53.132;6.574;2023-05-07T13:22:38;10.75;;;9.68;;
57752;SDS011;43583;53.132;6.574;2023-05-07T13:25:05;11.10;;;9.88;;
57752;SDS011;43583;53.132;6.574;2023-05-07T13:27:30;10.50;;;8.65;;
57752;SDS011;43583;53.132;6.574;2023-05-07T13:29:56;11.40;;;9.88;;
57752;SDS011;43583;53.132;6.574;2023-05-07T13:32:22;12.63;;;9.07;;
57752;SDS011;43583;53.132;6.574;2023-05-07T13:34:48;10.88;;;9.40;;
57752;SDS011;43583;53.132;6.574;2023-05-07T13:37:13;11.55;;;10.25;;
57752;SDS011;43583;53.132;6.574;2023-05-07T13:39:39;10.57;;;9.55;;
57752;SDS011;43583;53.132;6.574;2023-05-07T13:42:06;11.40;;;10.20;;
57752;SDS011;43583;53.132;6.574;2023-05-07T13:44:32;10.40;;;9.18;;
57752;SDS011;43583;53.132;6.574;2023-05-07T13:46:58;11.43;;;9.82;;
57752;SDS011;43583;53.132;6.574;2023-05-07T13:49:29;10.40;;;9.30;;
57752;SDS011;43583;53.132;6.574;2023-05-07T13:56:59;11.20;;;10.13;;
57752;SDS011;43583;53.132;6.574;2023-05-07T13:59:25;9.55;;;8.65;;
57752;SDS011;43583;53.132;6.574;2023-05-07T14:01:51;10.32;;;9.35;;
57752;SDS011;43583;53.132;6.574;2023-05-07T14:04:16;10.38;;;8.95;;
57752;SDS011;43583;53.132;6.574;2023-05-07T14:06:42;10.35;;;8.90;;
57752;SDS011;43583;53.132;6.574;2023-05-07T14:09:07;10.75;;;9.25;;
57752;SDS011;43583;53.132;6.574;2023-05-07T14:11:33;9.82;;;8.82;;
57752;SDS011;43583;53.132;6.574;2023-05-07T14:13:59;8.93;;;8.13;;
57752;SDS011;43583;53.132;6.574;2023-05-07T14:16:24;9.23;;;8.32;;
57752;SDS011;43583;53.132;6.574;2023-05-07T14:18:50;10.48;;;9.45;;
57752;SDS011;43583;53.132;6.574;2023-05-07T14:21:17;10.48;;;9.43;;
57752;SDS011;43583;53.132;6.574;2023-05-07T14:23:53;9.85;;;8.90;;
57752;SDS011;43583;53.132;6.574;2023-05-07T14:26:21;10.50;;;9.40;;
57752;SDS011;43583;53.132;6.574;2023-05-07T14:28:48;9.20;;;8.38;;
57752;SDS011;43583;53.132;6.574;2023-05-07T14:31:14;10.23;;;9.27;;
57752;SDS011;43583;53.132;6.574;2023-05-07T14:33:40;11.00;;;9.13;;
57752;SDS011;43583;53.132;6.574;2023-05-07T14:36:05;8.98;;;8.18;;
57752;SDS011;43583;53.132;6.574;2023-05-07T14:38:31;9.82;;;8.88;;
57752;SDS011;43583;53.132;6.574;2023-05-07T14:41:28;9.07;;;8.27;;
57752;SDS011;43583;53.132;6.574;2023-05-07T14:44:02;8.90;;;7.90;;
57752;SDS011;43583;53.132;6.574;2023-05-07T14:46:52;9.52;;;8.60;;
57752;SDS011;43583;53.132;6.574;2023-05-07T14:49:17;10.20;;;9.05;;
57752;SDS011;43583;53.132;6.574;2023-05-07T14:51:44;8.85;;;8.05;;
57752;SDS011;43583;53.132;6.574;2023-05-07T14:54:11;8.75;;;7.93;;
57752;SDS011;43583;53.132;6.574;2023-05-07T14:56:40;9.05;;;8.15;;
57752;SDS011;43583;53.132;6.574;2023-05-07T14:59:06;9.23;;;8.35;;
57752;SDS011;43583;53.132;6.574;2023-05-07T15:01:34;8.90;;;8.00;;
57752;SDS011;43583;53.132;6.574;2023-05-07T15:04:00;8.30;;;7.50;;
57752;SDS011;43583;53.132;6.574;2023-05-07T15:06:26;9.30;;;8.40;;
57752;SDS011;43583;53.132;6.574;2023-05-07T15:08:51;9.85;;;8.52;;